Time;durP1;ratioP1;P1;durP2;ratioP2;P2;SDS_P1;SDS_P2;PMS_P1;PMS_P2;Temp;Humidity;BMP_temperature;BMP_pressure;BME280_temperature;BME280_humidity;BME280_pressure;Samples;Min_cycle;Max_cycle;Signal;HPM_P1;HPM_P2
2022/05/06 00:01:39;;;;;;;7.57;4.80;;;14.00;99.90;;;;;;5092853;28;20035;-86
2022/05/06 00:04:06;;;;;;;5.85;5.25;;;13.90;99.90;;;;;;5091804;28;20028;-86
2022/05/06 00:06:32;;;;;;;5.80;5.10;;;13.90;99.90;;;;;;5092351;28;20024;-86
2022/05/06 00:08:58;;;;;;;7.45;5.30;;;13.90;99.90;;;;;;5092057;28;20099;-86
2022/05/06 00:11:25;;;;;;;6.40;5.30;;;13.80;99.90;;;;;;5090410;28;20036;-86
2022/05/06 00:13:52;;;;;;;6.07;4.50;;;13.90;99.90;;;;;;5090893;28;20062;-86
2022/05/06 00:16:22;;;;;;;5.72;5.10;;;13.80;99.90;;;;;;5092489;28;20464;-86
2022/05/06 00:18:48;;;;;;;6.70;5.65;;;13.90;99.90;;;;;;5085778;28;20024;-86
2022/05/06 00:21:14;;;;;;;7.07;5.60;;;13.60;99.90;;;;;;5091785;28;20122;-86
2022/05/06 00:23:40;;;;;;;7.45;5.03;;;13.50;99.90;;;;;;5090940;28;20507;-86
2022/05/06 00:26:06;;;;;;;5.63;5.13;;;13.60;99.90;;;;;;5091226;28;20020;-86
2022/05/06 00:28:32;;;;;;;5.22;4.72;;;13.60;99.90;;;;;;5091162;28;20115;-86
2022/05/06 00:30:58;;;;;;;5.22;4.70;;;13.40;99.90;;;;;;5091786;28;20107;-87
2022/05/06 00:33:24;;;;;;;6.22;5.00;;;13.40;99.90;;;;;;5089643;28;20047;-86
2022/05/06 00:35:56;;;;;;;5.57;4.78;;;13.40;99.90;;;;;;5090748;28;20012;-86
2022/05/06 00:38:22;;;;;;;5.88;4.97;;;13.40;99.90;;;;;;5090850;28;20047;-86
2022/05/06 00:40:49;;;;;;;5.50;5.00;;;13.20;99.90;;;;;;5090941;28;20024;-86
2022/05/06 00:43:14;;;;;;;7.35;5.25;;;13.20;99.90;;;;;;5091188;28;20060;-86
2022/05/06 00:45:48;;;;;;;5.72;5.00;;;13.20;99.90;;;;;;5091485;28;20059;-86
2022/05/06 00:48:15;;;;;;;5.72;5.13;;;13.30;99.90;;;;;;5090639;28;20509;-86
2022/05/06 00:50:45;;;;;;;5.53;5.03;;;13.20;99.90;;;;;;5090646;28;20412;-86
2022/05/06 00:53:12;;;;;;;5.50;5.00;;;13.10;99.90;;;;;;5091066;28;20111;-86
2022/05/06 00:55:38;;;;;;;5.63;5.13;;;12.90;99.90;;;;;;5090841;28;20024;-86
2022/05/06 00:58:04;;;;;;;7.55;5.13;;;12.90;99.90;;;;;;5090345;28;20076;-86
2022/05/06 01:00:30;;;;;;;8.45;5.32;;;12.90;99.90;;;;;;5089206;28;20115;-86
2022/05/06 01:02:55;;;;;;;6.72;5.25;;;12.80;99.90;;;;;;5089134;28;20150;-86
2022/05/06 01:05:25;;;;;;;7.63;5.50;;;12.80;99.90;;;;;;5090508;28;20031;-86
2022/05/06 01:07:51;;;;;;;8.23;5.70;;;13.00;99.90;;;;;;5090508;28;20024;-86
2022/05/06 01:10:19;;;;;;;7.25;5.45;;;13.00;99.90;;;;;;5090385;28;20016;-86
2022/05/06 01:12:45;;;;;;;6.20;5.68;;;13.00;99.90;;;;;;5090773;28;20564;-87
2022/05/06 01:15:27;;;;;;;7.43;5.95;;;12.60;99.90;;;;;;5089430;28;20111;-86
2022/05/06 01:17:55;;;;;;;7.05;5.45;;;12.70;99.90;;;;;;5090296;28;20553;-86
2022/05/06 01:20:22;;;;;;;6.15;5.60;;;12.90;99.90;;;;;;5090075;28;20024;-86
2022/05/06 01:22:50;;;;;;;8.50;6.10;;;12.90;99.90;;;;;;5089484;28;20056;-86
2022/05/06 01:25:16;;;;;;;6.20;5.60;;;12.90;99.90;;;;;;5090684;28;20031;-86
2022/05/06 01:28:03;;;;;;;8.38;6.22;;;12.80;99.90;;;;;;5043329;28;1371304;-86
2022/05/06 01:30:35;;;;;;;9.25;6.03;;;12.80;99.90;;;;;;5090826;28;20089;-86
2022/05/06 01:33:03;;;;;;;7.38;6.60;;;12.70;99.90;;;;;;5091047;28;20377;-86
2022/05/06 01:35:30;;;;;;;8.25;6.57;;;12.60;99.90;;;;;;5091090;28;20036;-86
2022/05/06 01:38:00;;;;;;;6.60;6.00;;;12.80;99.90;;;;;;5089429;28;20028;-86
2022/05/06 01:40:27;;;;;;;6.35;5.75;;;12.80;99.90;;;;;;5091074;28;20062;-86
2022/05/06 01:42:57;;;;;;;6.75;6.00;;;12.90;99.90;;;;;;5091653;28;20032;-86
2022/05/06 01:45:24;;;;;;;7.03;5.95;;;12.80;99.90;;;;;;5090907;28;20096;-86
2022/05/06 01:47:53;;;;;;;7.65;6.45;;;12.70;99.90;;;;;;5090940;28;20122;-86
2022/05/06 01:50:21;;;;;;;7.63;6.82;;;12.70;99.90;;;;;;5090891;28;20016;-86
2022/05/06 01:52:50;;;;;;;9.30;6.75;;;12.70;99.90;;;;;;5090524;28;20036;-86
2022/05/06 01:55:15;;;;;;;9.73;6.50;;;12.70;99.90;;;;;;5089702;28;20032;-86
2022/05/06 01:57:41;;;;;;;7.75;6.80;;;12.70;99.90;;;;;;5091886;28;20085;-86
2022/05/06 02:00:08;;;;;;;7.50;6.68;;;12.90;99.90;;;;;;5090987;28;20031;-86
2022/05/06 02:02:34;;;;;;;7.35;6.60;;;12.90;99.90;;;;;;5090643;28;20488;-86
2022/05/06 02:05:19;;;;;;;7.68;6.82;;;12.90;99.90;;;;;;5091100;28;20023;-86
2022/05/06 02:07:52;;;;;;;8.85;6.93;;;12.90;99.90;;;;;;5076110;28;20052;-86
2022/05/06 02:10:20;;;;;;;8.80;6.97;;;12.80;99.90;;;;;;5091205;28;20032;-86
2022/05/06 02:12:46;;;;;;;8.02;6.70;;;12.70;99.90;;;;;;5089466;28;20040;-86
2022/05/06 02:15:13;;;;;;;9.57;7.20;;;12.60;99.90;;;;;;5090742;28;20020;-86
2022/05/06 02:17:41;;;;;;;8.63;6.85;;;12.50;99.90;;;;;;5090438;28;20021;-86
2022/05/06 02:20:09;;;;;;;8.55;6.95;;;12.60;99.90;;;;;;5090739;28;20020;-86
2022/05/06 02:22:36;;;;;;;7.22;6.53;;;12.50;99.90;;;;;;5090320;28;20024;-86
2022/05/06 02:25:04;;;;;;;11.63;7.15;;;12.50;99.90;;;;;;5091937;28;20494;-86
2022/05/06 02:27:30;;;;;;;7.82;7.13;;;12.40;99.90;;;;;;5090726;28;20139;-86
2022/05/06 02:35:24;;;;;;;11.38;7.40;;;12.20;99.90;;;;;;5093509;28;20027;-86
2022/05/06 02:37:49;;;;;;;7.80;7.00;;;12.20;99.90;;;;;;5094335;28;20028;-85
2022/05/06 02:40:15;;;;;;;9.27;7.53;;;12.40;99.90;;;;;;5094776;28;20023;-86
2022/05/06 02:42:40;;;;;;;8.55;7.32;;;12.50;99.90;;;;;;5094458;28;20039;-86
2022/05/06 02:45:07;;;;;;;8.93;7.47;;;12.40;99.90;;;;;;5093848;28;20009;-86
2022/05/06 02:47:33;;;;;;;8.45;7.15;;;12.60;99.90;;;;;;5093644;28;20032;-85
2022/05/06 02:49:58;;;;;;;9.50;7.70;;;12.60;99.90;;;;;;5093961;28;20020;-85
2022/05/06 02:52:24;;;;;;;9.57;7.70;;;12.70;99.90;;;;;;5093917;28;20828;-86
2022/05/06 02:54:50;;;;;;;10.93;7.35;;;12.50;99.90;;;;;;5094398;28;20086;-86
2022/05/06 02:57:15;;;;;;;8.27;7.47;;;12.60;99.90;;;;;;5093998;28;20047;-86
2022/05/06 02:59:41;;;;;;;8.00;7.22;;;12.40;99.90;;;;;;5092358;28;20089;-86
2022/05/06 03:02:07;;;;;;;10.45;8.18;;;12.50;99.90;;;;;;5093548;28;20016;-86
2022/05/06 03:04:33;;;;;;;7.85;7.05;;;12.40;99.90;;;;;;5077345;28;20027;-86
2022/05/06 03:06:59;;;;;;;9.32;8.23;;;12.40;99.90;;;;;;5094264;28;20070;-86
2022/05/06 03:09:25;;;;;;;8.85;8.00;;;12.40;99.90;;;;;;5092099;28;20031;-86
2022/05/06 03:11:52;;;;;;;11.27;8.20;;;12.40;99.90;;;;;;5093244;28;20469;-86
2022/05/06 03:14:17;;;;;;;9.52;8.38;;;12.40;99.90;;;;;;5093803;28;20047;-86
2022/05/06 03:16:43;;;;;;;8.85;7.90;;;12.60;99.90;;;;;;5093672;28;20455;-86
2022/05/06 03:19:09;;;;;;;9.77;8.40;;;12.70;99.90;;;;;;5093266;28;20104;-86
2022/05/06 03:21:35;;;;;;;9.73;8.70;;;12.50;99.90;;;;;;5094222;28;20034;-86
2022/05/06 03:24:01;;;;;;;9.38;8.48;;;12.60;99.90;;;;;;5093087;28;20020;-86
2022/05/06 03:26:27;;;;;;;8.32;7.53;;;12.70;99.90;;;;;;5092833;28;20044;-86
2022/05/06 03:28:56;;;;;;;8.48;7.68;;;12.70;99.90;;;;;;5093293;28;20076;-86
2022/05/06 03:31:22;;;;;;;8.90;7.78;;;12.80;99.90;;;;;;5091825;28;20020;-86
2022/05/06 03:33:49;;;;;;;9.30;8.40;;;12.70;99.90;;;;;;5093789;28;20054;-85
2022/05/06 03:36:15;;;;;;;10.60;8.13;;;12.60;99.90;;;;;;5092867;28;20028;-86
2022/05/06 03:38:41;;;;;;;9.80;8.48;;;12.30;99.90;;;;;;5092951;28;20020;-86
2022/05/06 03:41:06;;;;;;;9.57;8.57;;;12.30;99.90;;;;;;5093222;28;20499;-86
2022/05/06 03:43:32;;;;;;;9.52;8.52;;;12.20;99.90;;;;;;5092655;28;20016;-86
2022/05/06 03:45:57;;;;;;;10.07;9.00;;;12.10;99.90;;;;;;5093006;28;20438;-86
2022/05/06 03:48:26;;;;;;;10.80;9.43;;;12.10;99.90;;;;;;5092219;28;20035;-85
2022/05/06 03:53:36;;;;;;;10.20;9.02;;;11.90;99.90;;;;;;5092674;28;20098;-86
2022/05/06 03:56:03;;;;;;;10.98;9.45;;;12.00;99.90;;;;;;5093327;28;20052;-86
2022/05/06 03:58:30;;;;;;;10.68;9.57;;;12.10;99.90;;;;;;5092540;28;20012;-85
2022/05/06 04:00:55;;;;;;;10.20;9.18;;;12.30;99.90;;;;;;5093147;28;20044;-86
2022/05/06 04:03:21;;;;;;;10.55;9.48;;;12.50;99.90;;;;;;5092400;28;20074;-86
2022/05/06 04:05:47;;;;;;;12.27;9.52;;;12.50;99.90;;;;;;5092192;28;20025;-86
2022/05/06 04:08:12;;;;;;;10.60;9.50;;;12.50;99.90;;;;;;5091189;28;20079;-86
2022/05/06 04:10:38;;;;;;;10.52;9.35;;;12.60;99.90;;;;;;5092499;28;20024;-86
2022/05/06 04:13:04;;;;;;;9.63;8.63;;;12.70;99.90;;;;;;5092797;28;20078;-85
2022/05/06 04:15:32;;;;;;;11.23;9.07;;;12.70;99.90;;;;;;5092397;28;20436;-86
2022/05/06 04:17:58;;;;;;;11.38;10.07;;;12.60;99.90;;;;;;5090355;28;20051;-86
2022/05/06 04:25:53;;;;;;;12.48;9.13;;;12.40;99.90;;;;;;5092119;28;20460;-86
2022/05/06 04:28:19;;;;;;;10.88;9.48;;;12.50;99.90;;;;;;5091868;28;20115;-86
2022/05/06 04:30:45;;;;;;;9.73;8.70;;;12.60;99.90;;;;;;5090778;28;20059;-86
2022/05/06 04:33:10;;;;;;;10.00;8.95;;;12.70;99.90;;;;;;5091318;28;20055;-86
2022/05/06 04:35:36;;;;;;;12.05;9.57;;;12.70;99.90;;;;;;5092097;28;20055;-86
2022/05/06 04:38:02;;;;;;;10.70;9.23;;;12.40;99.90;;;;;;5090638;28;20520;-86
2022/05/06 04:40:27;;;;;;;10.27;9.20;;;12.30;99.90;;;;;;5092029;28;20028;-86
2022/05/06 04:42:53;;;;;;;10.77;9.68;;;12.50;99.90;;;;;;5092233;28;20028;-86
2022/05/06 04:45:19;;;;;;;11.57;10.30;;;12.30;99.90;;;;;;5091593;28;20496;-85
2022/05/06 04:47:44;;;;;;;11.20;10.07;;;12.30;99.90;;;;;;5091347;28;20032;-86
2022/05/06 04:50:10;;;;;;;12.23;10.15;;;12.40;99.90;;;;;;5091663;28;20020;-86
2022/05/06 04:52:36;;;;;;;13.35;10.30;;;12.60;99.90;;;;;;5091448;28;20129;-86
2022/05/06 04:55:01;;;;;;;10.70;9.55;;;12.30;99.90;;;;;;5092555;28;20103;-85
2022/05/06 04:57:27;;;;;;;11.93;10.63;;;12.30;99.90;;;;;;5091391;28;20048;-85
2022/05/06 04:59:53;;;;;;;12.48;10.32;;;12.20;99.90;;;;;;5091334;28;20039;-86
2022/05/06 05:02:18;;;;;;;12.40;11.00;;;12.20;99.90;;;;;;5091205;28;20028;-86
2022/05/06 05:04:44;;;;;;;12.57;10.95;;;11.90;99.90;;;;;;5091762;28;20051;-86
2022/05/06 05:07:10;;;;;;;11.98;10.77;;;11.90;99.90;;;;;;5091057;28;20032;-86
2022/05/06 05:09:36;;;;;;;12.32;11.02;;;12.00;99.90;;;;;;5092227;28;20020;-86
2022/05/06 05:12:03;;;;;;;11.63;10.52;;;12.20;99.90;;;;;;5090872;28;20094;-85
2022/05/06 05:14:29;;;;;;;13.35;11.25;;;12.20;99.90;;;;;;5091366;28;20161;-85
2022/05/06 05:16:55;;;;;;;12.82;11.43;;;12.10;99.90;;;;;;5091077;28;20049;-86
2022/05/06 05:19:21;;;;;;;14.68;10.98;;;11.90;99.90;;;;;;5089913;28;20108;-86
2022/05/06 05:21:47;;;;;;;12.38;10.23;;;12.10;99.90;;;;;;5091899;28;20501;-86
2022/05/06 05:24:13;;;;;;;11.68;10.52;;;12.30;99.90;;;;;;5091046;28;20537;-85
2022/05/06 05:26:39;;;;;;;14.98;11.52;;;12.40;99.90;;;;;;5089816;28;20424;-85
2022/05/06 05:29:05;;;;;;;12.52;10.90;;;12.20;99.90;;;;;;5091048;28;20020;-86
2022/05/06 05:31:30;;;;;;;15.02;12.30;;;12.30;99.90;;;;;;5090648;28;20089;-85
2022/05/06 05:33:56;;;;;;;16.45;12.70;;;12.60;99.90;;;;;;5091815;28;20028;-86
2022/05/06 05:36:22;;;;;;;13.85;11.32;;;12.60;99.90;;;;;;5091237;28;20031;-85
2022/05/06 05:38:47;;;;;;;12.90;11.05;;;12.50;99.90;;;;;;5089498;28;20085;-86
2022/05/06 05:41:13;;;;;;;13.43;12.05;;;12.70;99.90;;;;;;5089959;28;20028;-86
2022/05/06 05:49:07;;;;;;;12.90;11.43;;;12.60;99.90;;;;;;5087918;28;20403;-86
2022/05/06 05:51:33;;;;;;;12.65;11.30;;;12.70;99.90;;;;;;5091464;28;20111;-86
2022/05/06 05:53:59;;;;;;;13.85;11.82;;;12.30;99.90;;;;;;5091058;28;20036;-85
2022/05/06 05:56:25;;;;;;;12.65;11.35;;;12.40;99.90;;;;;;5090730;28;20115;-86
2022/05/06 05:58:51;;;;;;;13.00;11.68;;;12.40;99.90;;;;;;5090537;28;20074;-85
2022/05/06 06:01:18;;;;;;;12.90;11.35;;;12.60;99.90;;;;;;5090971;28;20047;-85
2022/05/06 06:03:43;;;;;;;13.77;11.75;;;12.60;99.90;;;;;;5091346;28;20103;-86
2022/05/06 06:06:09;;;;;;;13.38;11.98;;;12.50;99.90;;;;;;5091119;28;20445;-86
2022/05/06 06:08:35;;;;;;;14.05;12.02;;;12.70;99.90;;;;;;5092068;28;20106;-85
2022/05/06 06:11:02;;;;;;;14.07;12.57;;;12.60;99.90;;;;;;5093072;28;20115;-86
2022/05/06 06:13:30;;;;;;;15.07;12.20;;;12.60;99.90;;;;;;5094203;28;20245;-85
2022/05/06 06:15:56;;;;;;;15.10;12.32;;;12.40;99.90;;;;;;5094400;28;20433;-86
2022/05/06 06:18:26;;;;;;;15.63;12.32;;;12.80;99.90;;;;;;5093897;28;20085;-85
2022/05/06 06:20:53;;;;;;;12.65;11.35;;;13.00;99.90;;;;;;5093600;28;20052;-86
2022/05/06 06:23:19;;;;;;;12.70;10.95;;;13.30;99.90;;;;;;5094647;28;20502;-90
2022/05/06 06:25:45;;;;;;;12.55;11.23;;;13.40;99.90;;;;;;5096029;28;20043;-91
2022/05/06 06:28:10;;;;;;;12.85;11.55;;;13.30;99.90;;;;;;5094417;28;20564;-90
2022/05/06 06:30:36;;;;;;;15.55;11.18;;;13.10;99.90;;;;;;5096317;28;20496;-90
2022/05/06 06:33:02;;;;;;;12.55;11.35;;;13.20;99.90;;;;;;5094836;28;20123;-91
2022/05/06 06:35:27;;;;;;;12.45;11.18;;;13.30;99.90;;;;;;5094370;28;20076;-91
2022/05/06 06:37:53;;;;;;;12.88;11.05;;;13.30;99.90;;;;;;5094180;28;20035;-90
2022/05/06 06:40:19;;;;;;;14.05;12.65;;;13.40;99.90;;;;;;5096257;28;20036;-91
2022/05/06 06:42:46;;;;;;;11.73;10.60;;;13.20;99.90;;;;;;5095381;28;20054;-91
2022/05/06 06:45:11;;;;;;;11.85;10.65;;;13.30;99.90;;;;;;5095558;28;20039;-90
2022/05/06 06:47:37;;;;;;;13.50;12.10;;;13.30;99.90;;;;;;5095118;28;20464;-89
2022/05/06 06:50:03;;;;;;;13.55;12.15;;;13.30;99.90;;;;;;5094778;28;20020;-89
2022/05/06 06:52:29;;;;;;;13.50;12.10;;;13.40;99.90;;;;;;5089551;28;20094;-90
2022/05/06 06:54:57;;;;;;;14.38;12.10;;;13.40;99.90;;;;;;5094732;28;20058;-91
2022/05/06 06:57:22;;;;;;;13.15;11.80;;;13.40;99.90;;;;;;5094592;28;20031;-90
2022/05/06 06:59:48;;;;;;;14.10;12.60;;;13.40;99.90;;;;;;5095842;28;20064;-87
2022/05/06 07:02:13;;;;;;;15.02;12.50;;;13.40;99.90;;;;;;5094016;28;20061;-87
2022/05/06 07:04:39;;;;;;;15.23;12.05;;;13.50;99.90;;;;;;5093915;28;20077;-88
2022/05/06 07:12:33;;;;;;;16.10;13.15;;;13.70;99.90;;;;;;5093004;28;20043;-88
2022/05/06 07:15:01;;;;;;;13.70;12.30;;;13.50;99.90;;;;;;5093777;28;20027;-88
2022/05/06 07:17:27;;;;;;;15.82;12.98;;;13.70;99.90;;;;;;5093379;28;20468;-87
2022/05/06 07:19:52;;;;;;;15.82;12.88;;;13.70;99.90;;;;;;5092187;28;20035;-88
2022/05/06 07:22:18;;;;;;;15.35;13.73;;;13.80;99.90;;;;;;5094002;28;20476;-87
2022/05/06 07:24:44;;;;;;;14.93;13.15;;;13.70;99.90;;;;;;5094370;28;20028;-87
2022/05/06 07:27:10;;;;;;;16.55;13.93;;;13.80;99.90;;;;;;5091674;28;20427;-87
2022/05/06 07:29:35;;;;;;;15.80;14.30;;;13.60;99.90;;;;;;5093586;28;20024;-88
2022/05/06 07:32:01;;;;;;;15.40;13.60;;;13.50;99.90;;;;;;5093180;28;20492;-88
2022/05/06 07:34:26;;;;;;;17.83;13.57;;;13.40;99.90;;;;;;5093298;28;20031;-88
2022/05/06 07:36:52;;;;;;;20.15;14.23;;;13.60;99.90;;;;;;5092668;28;20028;-87
2022/05/06 07:39:18;;;;;;;14.85;13.20;;;13.80;99.90;;;;;;5093040;28;20028;-87
2022/05/06 07:41:44;;;;;;;16.55;13.85;;;13.70;99.90;;;;;;5092575;28;20430;-87
2022/05/06 07:44:10;;;;;;;14.55;13.05;;;14.10;99.90;;;;;;5093202;28;20024;-88
2022/05/06 07:46:36;;;;;;;14.90;12.80;;;14.10;99.90;;;;;;5091926;28;20031;-87
2022/05/06 07:49:03;;;;;;;15.13;12.85;;;14.00;99.90;;;;;;5089830;28;20077;-88
2022/05/06 07:51:28;;;;;;;15.18;13.55;;;13.90;99.90;;;;;;5091886;28;20035;-87
2022/05/06 07:53:55;;;;;;;15.10;13.52;;;14.00;99.90;;;;;;5092746;28;20028;-88
2022/05/06 07:56:26;;;;;;;16.10;13.82;;;14.20;99.90;;;;;;5092356;28;20495;-87
2022/05/06 07:58:53;;;;;;;15.00;13.40;;;14.20;99.90;;;;;;5092789;28;20381;-88
2022/05/06 08:04:32;;;;;;;14.65;12.95;;;14.20;99.90;;;;;;5092796;28;20804;-86
2022/05/06 08:06:52;;;;;;;14.13;12.63;;;14.70;99.90;;;;;;5092236;28;20089;-88
2022/05/06 08:09:18;;;;;;;14.73;12.73;;;15.00;99.90;;;;;;5092449;28;20034;-88
2022/05/06 08:11:43;;;;;;;13.20;11.80;;;15.20;99.90;;;;;;5090860;28;20478;-87
2022/05/06 08:14:09;;;;;;;13.95;12.23;;;15.40;99.90;;;;;;5092903;28;20035;-87
2022/05/06 08:16:34;;;;;;;16.80;12.80;;;15.40;99.90;;;;;;5092531;28;20051;-87
2022/05/06 08:19:00;;;;;;;15.05;13.43;;;15.40;99.90;;;;;;5092933;28;20036;-88
2022/05/06 08:21:26;;;;;;;15.02;13.50;;;15.40;99.90;;;;;;5091338;28;20133;-87
2022/05/06 08:23:52;;;;;;;13.90;12.45;;;15.40;99.90;;;;;;5091990;28;20039;-88
2022/05/06 08:26:18;;;;;;;17.00;13.73;;;15.40;99.90;;;;;;5092042;28;20075;-88
2022/05/06 08:28:44;;;;;;;15.05;12.68;;;15.60;99.90;;;;;;5092844;28;20059;-88
2022/05/06 08:31:10;;;;;;;15.38;12.38;;;15.90;99.90;;;;;;5091034;28;20031;-87
2022/05/06 08:33:36;;;;;;;14.02;12.45;;;15.70;99.90;;;;;;5092469;28;20040;-88
2022/05/06 08:36:01;;;;;;;16.63;14.25;;;15.60;99.90;;;;;;5091892;28;20460;-88
2022/05/06 08:38:27;;;;;;;14.95;12.48;;;15.50;99.90;;;;;;5090744;28;20423;-87
2022/05/06 08:40:53;;;;;;;14.85;13.30;;;15.80;99.90;;;;;;5092198;28;20028;-87
2022/05/06 08:43:19;;;;;;;14.35;12.70;;;15.70;99.90;;;;;;5092024;28;20408;-87
2022/05/06 08:51:25;;;;;;;15.43;12.50;;;15.60;99.90;;;;;;5091878;28;20115;-88
2022/05/06 08:53:51;;;;;;;13.95;12.55;;;15.80;99.90;;;;;;5090508;28;20032;-87
2022/05/06 08:56:16;;;;;;;16.20;13.50;;;15.80;99.90;;;;;;5091871;28;20024;-87
2022/05/06 08:58:42;;;;;;;15.13;12.70;;;15.70;99.90;;;;;;5091864;28;20024;-87
2022/05/06 09:01:13;;;;;;;14.18;12.68;;;15.60;99.90;;;;;;5090881;28;20078;-88
2022/05/06 09:03:48;;;;;;;15.48;12.35;;;15.40;99.90;;;;;;5091512;28;20507;-87
2022/05/06 09:06:29;;;;;;;13.65;11.98;;;15.40;99.90;;;;;;5091812;28;20439;-87
2022/05/06 09:08:59;;;;;;;13.73;12.10;;;15.40;99.90;;;;;;5089858;28;20017;-87
2022/05/06 09:16:39;;;;;;;14.68;13.18;;;15.20;99.90;;;;;;5091612;28;20039;-88
2022/05/06 09:17:22;;;;;;;13.07;11.77;;;15.30;99.90;;;;;;5090678;28;20366;-87
2022/05/06 09:19:48;;;;;;;15.18;13.57;;;15.60;99.90;;;;;;5081479;28;20107;-89
2022/05/06 09:22:17;;;;;;;16.02;12.38;;;15.60;99.90;;;;;;5091505;28;20107;-89
2022/05/06 09:24:44;;;;;;;15.93;12.80;;;15.40;99.90;;;;;;5092158;28;20020;-88
2022/05/06 09:27:12;;;;;;;16.92;12.88;;;15.40;99.90;;;;;;5091163;28;20056;-89
2022/05/06 09:29:41;;;;;;;15.27;12.32;;;15.40;99.90;;;;;;5091988;28;20484;-91
2022/05/06 09:32:13;;;;;;;13.30;11.60;;;15.50;99.90;;;;;;5091733;28;20093;-91
2022/05/06 09:34:40;;;;;;;13.27;11.82;;;15.60;99.90;;;;;;5076465;28;20036;-92
2022/05/06 09:37:06;;;;;;;15.43;11.95;;;15.50;99.90;;;;;;5092819;28;20026;-90
2022/05/06 09:39:32;;;;;;;14.18;11.55;;;15.40;99.90;;;;;;5092031;28;20028;-89
2022/05/06 09:42:03;;;;;;;12.57;11.27;;;15.30;99.90;;;;;;5091615;28;20028;-90
2022/05/06 09:44:29;;;;;;;14.00;11.98;;;15.40;99.90;;;;;;5096090;28;20028;-88
2022/05/06 09:47:15;;;;;;;14.23;12.73;;;15.60;99.90;;;;;;5094866;28;20024;-89
2022/05/06 09:49:42;;;;;;;17.13;12.18;;;15.60;99.90;;;;;;5079297;28;20020;-92
2022/05/06 09:52:12;;;;;;;13.88;12.18;;;15.50;99.90;;;;;;5094759;28;20101;-91
2022/05/06 09:54:41;;;;;;;13.68;12.27;;;15.60;99.90;;;;;;5099364;28;20025;-88
2022/05/06 09:57:08;;;;;;;13.38;11.98;;;15.60;99.90;;;;;;5094462;28;20123;-87
2022/05/06 09:59:35;;;;;;;13.82;12.00;;;15.50;99.90;;;;;;5093486;28;20523;-91
2022/05/06 10:02:01;;;;;;;13.07;11.32;;;15.60;99.90;;;;;;5093238;28;20388;-88
2022/05/06 10:04:27;;;;;;;13.70;12.15;;;15.60;99.90;;;;;;5093979;28;20054;-88
2022/05/06 10:06:55;;;;;;;13.05;11.57;;;15.70;99.90;;;;;;5084376;28;20910;-92
2022/05/06 10:09:23;;;;;;;12.88;11.43;;;15.80;99.90;;;;;;5096551;28;20052;-91
2022/05/06 10:11:52;;;;;;;12.57;11.27;;;15.80;99.90;;;;;;5089215;28;20020;-96
2022/05/06 10:14:18;;;;;;;13.20;11.68;;;15.70;99.90;;;;;;5096735;28;20111;-94
2022/05/06 10:16:44;;;;;;;12.73;11.30;;;15.80;99.90;;;;;;5100230;28;20055;-93
2022/05/06 10:19:45;;;;;;;14.90;11.80;;;15.80;99.90;;;;;;5095979;28;20036;-93
2022/05/06 10:22:11;;;;;;;14.23;11.23;;;15.80;99.90;;;;;;5090357;28;20092;-94
2022/05/06 10:24:40;;;;;;;12.57;10.95;;;15.80;99.90;;;;;;5077656;28;20028;-94
2022/05/06 10:34:23;;;;;;;11.85;10.65;;;15.90;99.90;;;;;;5035558;28;20041;-93
2022/05/06 10:36:49;;;;;;;12.30;11.02;;;15.90;99.90;;;;;;4956117;29;20497;-90
2022/05/06 10:39:25;;;;;;;11.77;10.57;;;15.90;99.90;;;;;;4955171;28;20043;-88
2022/05/06 10:42:10;;;;;;;11.82;9.75;;;16.00;99.90;;;;;;4940031;29;20028;-94
2022/05/06 10:44:50;;;;;;;11.45;10.23;;;16.10;99.90;;;;;;4952536;29;20096;-94
2022/05/06 10:47:16;;;;;;;11.00;9.80;;;16.20;99.90;;;;;;4956389;29;20124;-93
2022/05/06 10:49:46;;;;;;;10.23;9.23;;;16.20;99.90;;;;;;4955789;29;20525;-89
2022/05/06 10:52:24;;;;;;;11.15;10.00;;;16.20;99.90;;;;;;4955004;29;20047;-92
2022/05/06 10:54:55;;;;;;;10.18;9.18;;;16.10;99.90;;;;;;4955068;28;20035;-94
2022/05/06 10:57:25;;;;;;;10.40;9.30;;;16.20;99.90;;;;;;4957215;29;20043;-95
2022/05/06 11:00:09;;;;;;;10.80;9.57;;;16.20;99.90;;;;;;4941260;28;20447;-95
2022/05/06 11:02:45;;;;;;;11.05;9.95;;;16.30;99.90;;;;;;4958983;29;20424;-96
2022/05/06 11:05:18;;;;;;;9.90;8.30;;;16.00;99.90;;;;;;4958956;28;20415;-92
2022/05/06 11:07:48;;;;;;;9.50;8.55;;;16.20;99.90;;;;;;4961263;28;20038;-96
2022/05/06 11:10:16;;;;;;;10.25;8.98;;;16.30;99.90;;;;;;5006195;28;20040;-92
2022/05/06 11:12:47;;;;;;;9.70;8.60;;;16.40;99.90;;;;;;5088746;28;20040;-95
2022/05/06 11:15:22;;;;;;;9.50;8.60;;;16.50;99.90;;;;;;5094138;28;20036;-93
2022/05/06 11:17:49;;;;;;;8.80;7.90;;;16.70;99.90;;;;;;5095103;28;20042;-95
2022/05/06 11:20:23;;;;;;;8.68;7.88;;;16.60;99.90;;;;;;5093877;28;20347;-92
2022/05/06 11:23:10;;;;;;;9.38;8.45;;;16.40;99.90;;;;;;5093540;28;20024;-93
2022/05/06 11:25:47;;;;;;;8.77;7.88;;;16.50;99.90;;;;;;5095566;28;20024;-94
2022/05/06 11:28:18;;;;;;;8.73;7.93;;;16.50;99.90;;;;;;5093136;28;20048;-93
2022/05/06 11:30:45;;;;;;;8.15;7.32;;;16.60;99.90;;;;;;5093428;28;20580;-94
2022/05/06 11:33:20;;;;;;;8.77;7.90;;;16.40;99.90;;;;;;5094012;28;20054;-95
2022/05/06 11:35:47;;;;;;;9.23;7.93;;;16.40;99.90;;;;;;5096592;28;20058;-94
2022/05/06 11:38:13;;;;;;;7.85;7.15;;;16.40;99.90;;;;;;5099590;28;20026;-95
2022/05/06 11:40:39;;;;;;;8.18;7.10;;;16.60;99.90;;;;;;5094911;28;20507;-94
2022/05/06 11:43:07;;;;;;;10.00;7.70;;;16.60;99.90;;;;;;5096775;28;20039;-95
2022/05/06 11:48:21;;;;;;;9.98;8.93;;;16.70;99.90;;;;;;5093634;28;20096;-93
2022/05/06 11:50:52;;;;;;;9.85;8.23;;;16.70;99.90;;;;;;5093989;28;20138;-88
2022/05/06 11:53:19;;;;;;;8.15;7.35;;;16.70;99.90;;;;;;5092512;28;20024;-93
2022/05/06 11:55:48;;;;;;;8.18;7.38;;;16.70;99.90;;;;;;5094764;28;20028;-93
2022/05/06 11:58:16;;;;;;;7.80;7.07;;;16.70;99.90;;;;;;5093300;28;20034;-92
2022/05/06 12:00:43;;;;;;;6.93;6.18;;;16.70;99.90;;;;;;5095352;28;20090;-93
2022/05/06 12:03:11;;;;;;;8.43;6.18;;;16.50;99.90;;;;;;5093172;28;20117;-92
2022/05/06 12:05:38;;;;;;;7.60;6.00;;;16.60;99.90;;;;;;5093870;28;20024;-90
2022/05/06 12:08:04;;;;;;;7.35;6.65;;;16.70;99.90;;;;;;5093343;28;20051;-91
2022/05/06 12:10:32;;;;;;;7.15;6.18;;;16.40;99.90;;;;;;5092423;28;20028;-91
2022/05/06 12:13:04;;;;;;;6.50;5.80;;;16.50;99.90;;;;;;5093801;28;20123;-92
2022/05/06 12:15:31;;;;;;;7.38;6.50;;;16.70;99.90;;;;;;5093908;28;20024;-91
2022/05/06 12:18:03;;;;;;;6.85;6.13;;;16.70;99.90;;;;;;5093572;28;20085;-92
2022/05/06 12:20:31;;;;;;;7.05;6.35;;;16.80;99.90;;;;;;5093285;28;20042;-91
2022/05/06 12:22:59;;;;;;;6.80;6.20;;;16.90;99.90;;;;;;5093771;28;20119;-92
2022/05/06 12:25:26;;;;;;;7.20;6.50;;;16.80;99.90;;;;;;5092800;28;20563;-92
2022/05/06 12:28:09;;;;;;;7.70;6.40;;;16.70;99.90;;;;;;5092458;28;20054;-91
2022/05/06 12:30:36;;;;;;;8.15;6.07;;;16.90;99.90;;;;;;5093587;28;20024;-91
2022/05/06 12:33:04;;;;;;;7.28;6.57;;;17.00;99.90;;;;;;5093501;28;20050;-92
2022/05/06 12:35:29;;;;;;;7.75;6.53;;;16.90;99.90;;;;;;5093589;28;20531;-91
2022/05/06 12:37:59;;;;;;;7.68;6.90;;;16.80;99.90;;;;;;5092910;28;20036;-92
2022/05/06 12:40:29;;;;;;;7.28;6.25;;;16.80;99.90;;;;;;5092582;28;20069;-92
2022/05/06 12:43:26;;;;;;;7.03;6.05;;;16.70;99.90;;;;;;5092037;28;20044;-92
2022/05/06 12:45:59;;;;;;;6.57;5.97;;;16.80;99.90;;;;;;5091936;28;20070;-92
2022/05/06 12:51:09;;;;;;;8.77;5.65;;;17.00;99.90;;;;;;5093681;28;20078;-92
2022/05/06 12:53:35;;;;;;;6.82;5.78;;;17.10;99.90;;;;;;5092288;28;20454;-92
2022/05/06 12:56:02;;;;;;;6.40;5.80;;;17.10;99.90;;;;;;5093489;28;20100;-91
2022/05/06 12:58:29;;;;;;;7.75;5.13;;;17.10;99.90;;;;;;5093446;28;20089;-92
2022/05/06 13:00:58;;;;;;;7.07;5.47;;;17.10;99.90;;;;;;5093604;28;20537;-92
2022/05/06 13:03:24;;;;;;;8.25;5.15;;;17.00;99.90;;;;;;5092818;28;20028;-91
2022/05/06 13:05:52;;;;;;;5.68;5.07;;;17.00;99.90;;;;;;5093575;28;20032;-92
2022/05/06 13:08:18;;;;;;;6.28;4.97;;;17.00;99.90;;;;;;5092894;28;20032;-91
2022/05/06 13:10:44;;;;;;;5.47;4.97;;;17.10;99.90;;;;;;5093409;28;20016;-91
2022/05/06 13:13:10;;;;;;;7.32;4.70;;;17.10;99.90;;;;;;5092048;28;20101;-92
2022/05/06 13:15:36;;;;;;;6.18;5.10;;;17.10;99.90;;;;;;5092522;28;20099;-92
2022/05/06 13:18:01;;;;;;;5.05;4.60;;;17.30;99.90;;;;;;5090998;28;20136;-92
2022/05/06 13:20:27;;;;;;;4.95;4.55;;;17.50;99.90;;;;;;5092067;28;20100;-92
2022/05/06 13:22:53;;;;;;;5.43;4.30;;;17.60;99.90;;;;;;5093128;28;20030;-92
2022/05/06 13:25:18;;;;;;;4.85;4.35;;;17.70;99.90;;;;;;5092588;28;20046;-92
2022/05/06 13:27:45;;;;;;;5.05;4.47;;;17.80;99.90;;;;;;5093400;28;20055;-92
2022/05/06 13:30:11;;;;;;;4.72;4.32;;;17.90;99.90;;;;;;5092754;28;20398;-92